sensor_id;sensor_type;location;lat;lon;timestamp;P1;durP1;ratioP1;P2;durP2;ratioP2
24233;SDS011;12365;43.554;1.388;2024-03-23T00:53:41;8.93;;;3.80;;
24233;SDS011;12365;43.554;1.388;2024-03-23T00:56:06;7.18;;;3.95;;
24233;SDS011;12365;43.554;1.388;2024-03-23T00:58:32;6.22;;;3.90;;
24233;SDS011;12365;43.554;1.388;2024-03-23T01:00:58;8.02;;;3.70;;
24233;SDS011;12365;43.554;1.388;2024-03-23T01:03:23;7.53;;;4.53;;
24233;SDS011;12365;43.554;1.388;2024-03-23T01:05:49;8.73;;;4.00;;
24233;SDS011;12365;43.554;1.388;2024-03-23T01:08:14;7.03;;;3.92;;
24233;SDS011;12365;43.554;1.388;2024-03-23T01:10:40;7.57;;;4.00;;
24233;SDS011;12365;43.554;1.388;2024-03-23T01:13:05;8.30;;;4.35;;
24233;SDS011;12365;43.554;1.388;2024-03-23T01:15:31;8.30;;;4.18;;
24233;SDS011;12365;43.554;1.388;2024-03-23T01:17:56;7.43;;;4.30;;
24233;SDS011;12365;43.554;1.388;2024-03-23T01:20:22;6.18;;;3.85;;
24233;SDS011;12365;43.554;1.388;2024-03-23T01:22:47;7.60;;;4.20;;
24233;SDS011;12365;43.554;1.388;2024-03-23T01:25:13;10.07;;;4.53;;
24233;SDS011;12365;43.554;1.388;2024-03-23T01:27:38;6.85;;;4.10;;
24233;SDS011;12365;43.554;1.388;2024-03-23T01:30:04;7.75;;;4.32;;
24233;SDS011;12365;43.554;1.388;2024-03-23T01:32:29;8.70;;;4.40;;
24233;SDS011;12365;43.554;1.388;2024-03-23T01:34:55;9.70;;;4.57;;
24233;SDS011;12365;43.554;1.388;2024-03-23T01:37:20;8.68;;;4.20;;
24233;SDS011;12365;43.554;1.388;2024-03-23T01:39:45;11.55;;;4.63;;
24233;SDS011;12365;43.554;1.388;2024-03-23T01:42:12;8.10;;;4.40;;
24233;SDS011;12365;43.554;1.388;2024-03-23T01:44:37;9.55;;;4.50;;
24233;SDS011;12365;43.554;1.388;2024-03-23T01:47:04;8.50;;;4.20;;
24233;SDS011;12365;43.554;1.388;2024-03-23T01:49:32;12.73;;;4.43;;
24233;SDS011;12365;43.554;1.388;2024-03-23T01:51:58;9.93;;;4.38;;
24233;SDS011;12365;43.554;1.388;2024-03-23T01:54:24;7.63;;;4.30;;
24233;SDS011;12365;43.554;1.388;2024-03-23T01:56:50;7.55;;;4.07;;
24233;SDS011;12365;43.554;1.388;2024-03-23T01:59:15;9.43;;;4.28;;
24233;SDS011;12365;43.554;1.388;2024-03-23T02:01:41;6.75;;;3.88;;
24233;SDS011;12365;43.554;1.388;2024-03-23T02:04:06;7.05;;;3.70;;
24233;SDS011;12365;43.554;1.388;2024-03-23T02:06:32;6.57;;;3.33;;
24233;SDS011;12365;43.554;1.388;2024-03-23T02:08:58;9.65;;;3.67;;
24233;SDS011;12365;43.554;1.388;2024-03-23T02:11:24;6.93;;;3.17;;
24233;SDS011;12365;43.554;1.388;2024-03-23T02:13:50;4.55;;;3.05;;
24233;SDS011;12365;43.554;1.388;2024-03-23T02:16:15;4.32;;;2.60;;
24233;SDS011;12365;43.554;1.388;2024-03-23T02:18:41;5.47;;;2.50;;
24233;SDS011;12365;43.554;1.388;2024-03-23T02:21:06;5.45;;;2.22;;
24233;SDS011;12365;43.554;1.388;2024-03-23T02:23:32;5.63;;;2.42;;
24233;SDS011;12365;43.554;1.388;2024-03-23T02:25:57;4.07;;;2.10;;
24233;SDS011;12365;43.554;1.388;2024-03-23T02:28:22;5.90;;;2.30;;
24233;SDS011;12365;43.554;1.388;2024-03-23T02:30:51;4.35;;;2.03;;
24233;SDS011;12365;43.554;1.388;2024-03-23T02:33:17;4.05;;;2.08;;
24233;SDS011;12365;43.554;1.388;2024-03-23T02:35:45;4.07;;;2.00;;
24233;SDS011;12365;43.554;1.388;2024-03-23T02:38:11;3.97;;;2.15;;
24233;SDS011;12365;43.554;1.388;2024-03-23T02:40:36;2.92;;;1.90;;
24233;SDS011;12365;43.554;1.388;2024-03-23T02:43:02;3.42;;;2.00;;
24233;SDS011;12365;43.554;1.388;2024-03-23T02:45:28;4.45;;;2.33;;
24233;SDS011;12365;43.554;1.388;2024-03-23T02:47:53;5.22;;;2.10;;
24233;SDS011;12365;43.554;1.388;2024-03-23T02:50:19;6.88;;;2.00;;
24233;SDS011;12365;43.554;1.388;2024-03-23T02:52:45;4.05;;;2.28;;
24233;SDS011;12365;43.554;1.388;2024-03-23T02:55:11;4.18;;;2.38;;
24233;SDS011;12365;43.554;1.388;2024-03-23T02:57:36;5.00;;;2.47;;
24233;SDS011;12365;43.554;1.388;2024-03-23T03:00:02;6.32;;;2.20;;
24233;SDS011;12365;43.554;1.388;2024-03-23T03:02:28;5.95;;;2.20;;
24233;SDS011;12365;43.554;1.388;2024-03-23T03:04:53;5.20;;;2.40;;
24233;SDS011;12365;43.554;1.388;2024-03-23T03:07:19;4.30;;;2.28;;
24233;SDS011;12365;43.554;1.388;2024-03-23T03:09:44;4.65;;;2.10;;
24233;SDS011;12365;43.554;1.388;2024-03-23T03:12:09;7.28;;;2.20;;
24233;SDS011;12365;43.554;1.388;2024-03-23T03:14:35;4.90;;;2.20;;
24233;SDS011;12365;43.554;1.388;2024-03-23T03:17:00;5.32;;;2.38;;
24233;SDS011;12365;43.554;1.388;2024-03-23T03:19:26;5.10;;;2.08;;
24233;SDS011;12365;43.554;1.388;2024-03-23T03:21:52;4.95;;;2.10;;
24233;SDS011;12365;43.554;1.388;2024-03-23T03:24:18;5.82;;;2.20;;
24233;SDS011;12365;43.554;1.388;2024-03-23T03:26:43;4.60;;;1.77;;
24233;SDS011;12365;43.554;1.388;2024-03-23T03:29:09;5.18;;;2.03;;
24233;SDS011;12365;43.554;1.388;2024-03-23T03:31:34;4.90;;;1.90;;
24233;SDS011;12365;43.554;1.388;2024-03-23T03:34:00;5.97;;;2.15;;
24233;SDS011;12365;43.554;1.388;2024-03-23T03:36:25;5.20;;;1.98;;
24233;SDS011;12365;43.554;1.388;2024-03-23T03:38:51;4.85;;;2.03;;
24233;SDS011;12365;43.554;1.388;2024-03-23T03:41:16;5.55;;;2.00;;
24233;SDS011;12365;43.554;1.388;2024-03-23T03:43:41;5.57;;;2.13;;
24233;SDS011;12365;43.554;1.388;2024-03-23T03:46:07;6.18;;;2.03;;
24233;SDS011;12365;43.554;1.388;2024-03-23T03:48:36;5.25;;;1.95;;
24233;SDS011;12365;43.554;1.388;2024-03-23T03:51:01;6.03;;;1.80;;
24233;SDS011;12365;43.554;1.388;2024-03-23T03:53:27;6.25;;;1.75;;
24233;SDS011;12365;43.554;1.388;2024-03-23T03:55:52;7.60;;;2.03;;
24233;SDS011;12365;43.554;1.388;2024-03-23T03:58:18;5.28;;;2.00;;
24233;SDS011;12365;43.554;1.388;2024-03-23T04:00:43;3.95;;;1.63;;
24233;SDS011;12365;43.554;1.388;2024-03-23T04:03:09;7.07;;;1.83;;
24233;SDS011;12365;43.554;1.388;2024-03-23T04:05:34;8.38;;;1.90;;
24233;SDS011;12365;43.554;1.388;2024-03-23T04:07:59;5.07;;;1.67;;
24233;SDS011;12365;43.554;1.388;2024-03-23T04:10:25;4.45;;;1.52;;
24233;SDS011;12365;43.554;1.388;2024-03-23T04:12:51;9.10;;;1.70;;
24233;SDS011;12365;43.554;1.388;2024-03-23T04:15:17;4.70;;;1.55;;
24233;SDS011;12365;43.554;1.388;2024-03-23T04:17:42;7.03;;;1.98;;
24233;SDS011;12365;43.554;1.388;2024-03-23T04:20:08;8.02;;;1.58;;
24233;SDS011;12365;43.554;1.388;2024-03-23T04:22:39;5.57;;;1.60;;
24233;SDS011;12365;43.554;1.388;2024-03-23T04:25:05;6.68;;;1.70;;
24233;SDS011;12365;43.554;1.388;2024-03-23T04:27:35;6.63;;;1.65;;
24233;SDS011;12365;43.554;1.388;2024-03-23T04:30:01;6.90;;;1.67;;
24233;SDS011;12365;43.554;1.388;2024-03-23T04:32:29;5.85;;;1.67;;
24233;SDS011;12365;43.554;1.388;2024-03-23T04:34:54;5.18;;;1.52;;
24233;SDS011;12365;43.554;1.388;2024-03-23T04:37:20;7.70;;;1.80;;
24233;SDS011;12365;43.554;1.388;2024-03-23T04:39:46;5.75;;;1.55;;
24233;SDS011;12365;43.554;1.388;2024-03-23T04:42:11;8.70;;;1.70;;
24233;SDS011;12365;43.554;1.388;2024-03-23T04:44:37;4.63;;;1.63;;
24233;SDS011;12365;43.554;1.388;2024-03-23T04:47:02;5.70;;;1.60;;
24233;SDS011;12365;43.554;1.388;2024-03-23T04:49:28;6.28;;;1.58;;
24233;SDS011;12365;43.554;1.388;2024-03-23T04:51:54;5.90;;;1.70;;
24233;SDS011;12365;43.554;1.388;2024-03-23T04:54:19;8.68;;;1.60;;
24233;SDS011;12365;43.554;1.388;2024-03-23T04:56:45;5.40;;;1.40;;
24233;SDS011;12365;43.554;1.388;2024-03-23T04:59:10;5.05;;;1.42;;
24233;SDS011;12365;43.554;1.388;2024-03-23T05:01:36;6.97;;;1.90;;
24233;SDS011;12365;43.554;1.388;2024-03-23T05:04:03;6.78;;;1.70;;
24233;SDS011;12365;43.554;1.388;2024-03-23T05:06:29;7.15;;;1.73;;
24233;SDS011;12365;43.554;1.388;2024-03-23T05:08:54;5.70;;;1.38;;
24233;SDS011;12365;43.554;1.388;2024-03-23T05:11:20;6.70;;;1.45;;
24233;SDS011;12365;43.554;1.388;2024-03-23T05:13:45;7.47;;;1.38;;
24233;SDS011;12365;43.554;1.388;2024-03-23T05:16:11;5.28;;;1.40;;
24233;SDS011;12365;43.554;1.388;2024-03-23T05:18:36;4.50;;;1.40;;
24233;SDS011;12365;43.554;1.388;2024-03-23T05:21:02;7.15;;;1.58;;
24233;SDS011;12365;43.554;1.388;2024-03-23T05:23:30;6.53;;;1.45;;
24233;SDS011;12365;43.554;1.388;2024-03-23T05:25:55;6.93;;;1.50;;
24233;SDS011;12365;43.554;1.388;2024-03-23T05:28:21;4.75;;;1.45;;
24233;SDS011;12365;43.554;1.388;2024-03-23T05:30:54;2.58;;;1.05;;
24233;SDS011;12365;43.554;1.388;2024-03-23T05:33:20;6.15;;;1.33;;
24233;SDS011;12365;43.554;1.388;2024-03-23T05:35:46;4.45;;;1.30;;
24233;SDS011;12365;43.554;1.388;2024-03-23T05:38:12;5.30;;;1.55;;
24233;SDS011;12365;43.554;1.388;2024-03-23T05:40:39;5.15;;;1.40;;
24233;SDS011;12365;43.554;1.388;2024-03-23T05:43:05;4.20;;;1.30;;
24233;SDS011;12365;43.554;1.388;2024-03-23T05:45:31;5.22;;;1.50;;
24233;SDS011;12365;43.554;1.388;2024-03-23T05:47:57;6.32;;;1.73;;
24233;SDS011;12365;43.554;1.388;2024-03-23T05:50:23;4.25;;;1.30;;
24233;SDS011;12365;43.554;1.388;2024-03-23T05:52:49;4.70;;;1.40;;
24233;SDS011;12365;43.554;1.388;2024-03-23T05:55:15;4.28;;;1.25;;
24233;SDS011;12365;43.554;1.388;2024-03-23T05:57:41;6.75;;;1.35;;
24233;SDS011;12365;43.554;1.388;2024-03-23T06:00:06;6.55;;;1.33;;
24233;SDS011;12365;43.554;1.388;2024-03-23T06:02:40;6.45;;;1.30;;
24233;SDS011;12365;43.554;1.388;2024-03-23T06:05:06;3.78;;;1.40;;
24233;SDS011;12365;43.554;1.388;2024-03-23T06:07:32;4.57;;;1.27;;
24233;SDS011;12365;43.554;1.388;2024-03-23T06:09:57;3.70;;;1.30;;
24233;SDS011;12365;43.554;1.388;2024-03-23T06:12:23;4.13;;;1.35;;
24233;SDS011;12365;43.554;1.388;2024-03-23T06:14:48;6.75;;;1.45;;
24233;SDS011;12365;43.554;1.388;2024-03-23T06:17:14;2.80;;;1.10;;
24233;SDS011;12365;43.554;1.388;2024-03-23T06:19:40;6.55;;;1.23;;
24233;SDS011;12365;43.554;1.388;2024-03-23T06:22:06;6.05;;;1.73;;
24233;SDS011;12365;43.554;1.388;2024-03-23T06:24:31;8.25;;;1.20;;
24233;SDS011;12365;43.554;1.388;2024-03-23T06:26:57;4.65;;;1.50;;
24233;SDS011;12365;43.554;1.388;2024-03-23T06:29:22;4.88;;;1.40;;
24233;SDS011;12365;43.554;1.388;2024-03-23T06:31:54;4.25;;;1.20;;
24233;SDS011;12365;43.554;1.388;2024-03-23T06:34:20;7.00;;;1.20;;
24233;SDS011;12365;43.554;1.388;2024-03-23T06:36:47;6.20;;;1.30;;
24233;SDS011;12365;43.554;1.388;2024-03-23T06:39:12;6.53;;;1.55;;
24233;SDS011;12365;43.554;1.388;2024-03-23T06:41:40;3.42;;;1.38;;
24233;SDS011;12365;43.554;1.388;2024-03-23T06:44:16;6.15;;;1.50;;
24233;SDS011;12365;43.554;1.388;2024-03-23T06:46:42;2.97;;;1.25;;
24233;SDS011;12365;43.554;1.388;2024-03-23T06:49:07;4.25;;;1.20;;
24233;SDS011;12365;43.554;1.388;2024-03-23T06:51:33;3.17;;;1.00;;
24233;SDS011;12365;43.554;1.388;2024-03-23T06:53:58;5.13;;;1.50;;
24233;SDS011;12365;43.554;1.388;2024-03-23T06:56:24;4.28;;;1.30;;
24233;SDS011;12365;43.554;1.388;2024-03-23T06:58:49;3.45;;;1.50;;
24233;SDS011;12365;43.554;1.388;2024-03-23T07:01:14;4.63;;;1.20;;
24233;SDS011;12365;43.554;1.388;2024-03-23T07:03:40;4.45;;;1.30;;
24233;SDS011;12365;43.554;1.388;2024-03-23T07:06:05;3.63;;;1.20;;
24233;SDS011;12365;43.554;1.388;2024-03-23T07:08:31;5.57;;;1.50;;
24233;SDS011;12365;43.554;1.388;2024-03-23T07:10:56;4.60;;;1.40;;
24233;SDS011;12365;43.554;1.388;2024-03-23T07:13:22;4.22;;;1.40;;
24233;SDS011;12365;43.554;1.388;2024-03-23T07:15:53;3.95;;;1.40;;
24233;SDS011;12365;43.554;1.388;2024-03-23T07:18:20;5.32;;;1.30;;
24233;SDS011;12365;43.554;1.388;2024-03-23T07:20:55;4.72;;;1.40;;
24233;SDS011;12365;43.554;1.388;2024-03-23T07:23:21;3.80;;;1.33;;
24233;SDS011;12365;43.554;1.388;2024-03-23T07:26:00;4.70;;;1.40;;
24233;SDS011;12365;43.554;1.388;2024-03-23T07:28:27;3.35;;;1.30;;
24233;SDS011;12365;43.554;1.388;2024-03-23T07:33:41;3.20;;;1.20;;
24233;SDS011;12365;43.554;1.388;2024-03-23T07:36:08;2.37;;;0.90;;
24233;SDS011;12365;43.554;1.388;2024-03-23T07:38:33;2.80;;;0.47;;
24233;SDS011;12365;43.554;1.388;2024-03-23T07:41:12;1.90;;;0.50;;
24233;SDS011;12365;43.554;1.388;2024-03-23T07:43:42;0.82;;;0.43;;
24233;SDS011;12365;43.554;1.388;2024-03-23T07:46:08;0.85;;;0.30;;
24233;SDS011;12365;43.554;1.388;2024-03-23T07:48:33;0.73;;;0.32;;
24233;SDS011;12365;43.554;1.388;2024-03-23T07:50:59;2.22;;;0.40;;
24233;SDS011;12365;43.554;1.388;2024-03-23T07:53:27;0.73;;;0.40;;
24233;SDS011;12365;43.554;1.388;2024-03-23T07:58:26;3.63;;;0.70;;
24233;SDS011;12365;43.554;1.388;2024-03-23T08:00:55;2.70;;;0.57;;
24233;SDS011;12365;43.554;1.388;2024-03-23T08:03:21;1.08;;;0.50;;
24233;SDS011;12365;43.554;1.388;2024-03-23T08:05:46;2.30;;;0.70;;
24233;SDS011;12365;43.554;1.388;2024-03-23T08:08:12;1.73;;;0.50;;
24233;SDS011;12365;43.554;1.388;2024-03-23T08:10:51;2.00;;;0.50;;
24233;SDS011;12365;43.554;1.388;2024-03-23T08:13:17;1.58;;;0.60;;
24233;SDS011;12365;43.554;1.388;2024-03-23T08:15:43;5.28;;;0.95;;
24233;SDS011;12365;43.554;1.388;2024-03-23T08:18:09;5.32;;;1.15;;
24233;SDS011;12365;43.554;1.388;2024-03-23T08:20:35;8.18;;;1.27;;
24233;SDS011;12365;43.554;1.388;2024-03-23T08:23:01;3.35;;;0.80;;
24233;SDS011;12365;43.554;1.388;2024-03-23T08:25:26;8.35;;;1.50;;
24233;SDS011;12365;43.554;1.388;2024-03-23T08:27:52;5.35;;;1.08;;
24233;SDS011;12365;43.554;1.388;2024-03-23T08:30:17;5.60;;;1.17;;
24233;SDS011;12365;43.554;1.388;2024-03-23T08:32:43;4.95;;;1.20;;
24233;SDS011;12365;43.554;1.388;2024-03-23T08:35:09;3.65;;;0.90;;
24233;SDS011;12365;43.554;1.388;2024-03-23T08:37:34;4.55;;;1.10;;
24233;SDS011;12365;43.554;1.388;2024-03-23T08:40:00;6.80;;;1.50;;
24233;SDS011;12365;43.554;1.388;2024-03-23T08:42:25;5.60;;;1.20;;
24233;SDS011;12365;43.554;1.388;2024-03-23T08:44:51;4.22;;;1.23;;
24233;SDS011;12365;43.554;1.388;2024-03-23T08:47:16;8.77;;;1.35;;
24233;SDS011;12365;43.554;1.388;2024-03-23T08:49:41;7.68;;;1.45;;
24233;SDS011;12365;43.554;1.388;2024-03-23T08:52:07;6.35;;;1.20;;
24233;SDS011;12365;43.554;1.388;2024-03-23T08:54:33;7.05;;;1.40;;
24233;SDS011;12365;43.554;1.388;2024-03-23T08:56:59;7.55;;;1.40;;
24233;SDS011;12365;43.554;1.388;2024-03-23T08:59:25;6.03;;;1.30;;
24233;SDS011;12365;43.554;1.388;2024-03-23T09:01:50;8.27;;;1.70;;
24233;SDS011;12365;43.554;1.388;2024-03-23T09:04:16;6.93;;;1.40;;
24233;SDS011;12365;43.554;1.388;2024-03-23T09:06:44;6.90;;;1.52;;
24233;SDS011;12365;43.554;1.388;2024-03-23T09:09:09;4.82;;;1.30;;
24233;SDS011;12365;43.554;1.388;2024-03-23T09:11:35;7.07;;;1.58;;
24233;SDS011;12365;43.554;1.388;2024-03-23T09:14:01;9.88;;;1.40;;
24233;SDS011;12365;43.554;1.388;2024-03-23T09:16:26;7.68;;;1.50;;
24233;SDS011;12365;43.554;1.388;2024-03-23T09:18:51;8.60;;;1.50;;
24233;SDS011;12365;43.554;1.388;2024-03-23T09:21:17;6.95;;;1.48;;
24233;SDS011;12365;43.554;1.388;2024-03-23T09:23:43;6.93;;;1.42;;
24233;SDS011;12365;43.554;1.388;2024-03-23T09:26:09;4.63;;;1.10;;
24233;SDS011;12365;43.554;1.388;2024-03-23T09:28:34;9.00;;;1.60;;
24233;SDS011;12365;43.554;1.388;2024-03-23T09:31:03;6.93;;;1.80;;
24233;SDS011;12365;43.554;1.388;2024-03-23T09:33:30;6.43;;;1.50;;
24233;SDS011;12365;43.554;1.388;2024-03-23T09:35:55;5.63;;;1.40;;
24233;SDS011;12365;43.554;1.388;2024-03-23T09:38:24;7.00;;;1.40;;
24233;SDS011;12365;43.554;1.388;2024-03-23T09:40:52;7.28;;;1.58;;
24233;SDS011;12365;43.554;1.388;2024-03-23T09:43:18;7.85;;;1.27;;
24233;SDS011;12365;43.554;1.388;2024-03-23T09:45:44;4.85;;;1.33;;
24233;SDS011;12365;43.554;1.388;2024-03-23T09:48:11;7.35;;;1.48;;
24233;SDS011;12365;43.554;1.388;2024-03-23T09:50:40;15.38;;;1.63;;
24233;SDS011;12365;43.554;1.388;2024-03-23T09:53:07;8.32;;;2.00;;
24233;SDS011;12365;43.554;1.388;2024-03-23T09:55:34;8.02;;;2.00;;
24233;SDS011;12365;43.554;1.388;2024-03-23T09:58:03;7.22;;;1.80;;
24233;SDS011;12365;43.554;1.388;2024-03-23T10:00:30;7.38;;;1.45;;
24233;SDS011;12365;43.554;1.388;2024-03-23T10:02:56;6.25;;;1.65;;
24233;SDS011;12365;43.554;1.388;2024-03-23T10:05:26;8.27;;;1.70;;
24233;SDS011;12365;43.554;1.388;2024-03-23T10:07:52;6.13;;;1.60;;
24233;SDS011;12365;43.554;1.388;2024-03-23T10:10:18;7.28;;;1.60;;
24233;SDS011;12365;43.554;1.388;2024-03-23T10:12:48;4.85;;;1.35;;
24233;SDS011;12365;43.554;1.388;2024-03-23T10:15:22;6.10;;;1.48;;
24233;SDS011;12365;43.554;1.388;2024-03-23T10:17:49;9.63;;;1.70;;
24233;SDS011;12365;43.554;1.388;2024-03-23T10:20:22;7.78;;;1.42;;
24233;SDS011;12365;43.554;1.388;2024-03-23T10:22:48;7.05;;;1.42;;
24233;SDS011;12365;43.554;1.388;2024-03-23T10:25:15;4.55;;;1.30;;
24233;SDS011;12365;43.554;1.388;2024-03-23T10:27:40;5.30;;;1.30;;
24233;SDS011;12365;43.554;1.388;2024-03-23T10:30:13;8.57;;;1.30;;
24233;SDS011;12365;43.554;1.388;2024-03-23T10:32:42;8.38;;;1.58;;
24233;SDS011;12365;43.554;1.388;2024-03-23T10:35:17;5.35;;;1.38;;
24233;SDS011;12365;43.554;1.388;2024-03-23T10:37:44;5.82;;;1.38;;
24233;SDS011;12365;43.554;1.388;2024-03-23T10:40:11;6.95;;;1.00;;
24233;SDS011;12365;43.554;1.388;2024-03-23T10:42:38;5.72;;;1.20;;
24233;SDS011;12365;43.554;1.388;2024-03-23T10:45:05;6.10;;;1.50;;
24233;SDS011;12365;43.554;1.388;2024-03-23T10:47:37;4.68;;;1.25;;
24233;SDS011;12365;43.554;1.388;2024-03-23T10:50:03;5.53;;;1.48;;
24233;SDS011;12365;43.554;1.388;2024-03-23T10:52:30;7.55;;;1.70;;
24233;SDS011;12365;43.554;1.388;2024-03-23T10:54:56;4.63;;;1.02;;
24233;SDS011;12365;43.554;1.388;2024-03-23T10:57:26;5.93;;;1.20;;
24233;SDS011;12365;43.554;1.388;2024-03-23T10:59:56;7.30;;;1.27;;
24233;SDS011;12365;43.554;1.388;2024-03-23T11:02:22;4.22;;;1.20;;
24233;SDS011;12365;43.554;1.388;2024-03-23T11:04:47;3.72;;;0.90;;
24233;SDS011;12365;43.554;1.388;2024-03-23T11:09:57;3.25;;;0.90;;
24233;SDS011;12365;43.554;1.388;2024-03-23T11:14:52;2.97;;;0.93;;
24233;SDS011;12365;43.554;1.388;2024-03-23T11:19:52;2.22;;;0.85;;
24233;SDS011;12365;43.554;1.388;2024-03-23T11:22:38;3.95;;;0.90;;
24233;SDS011;12365;43.554;1.388;2024-03-23T11:25:20;2.95;;;1.00;;
24233;SDS011;12365;43.554;1.388;2024-03-23T11:27:46;4.32;;;0.88;;
24233;SDS011;12365;43.554;1.388;2024-03-23T11:30:16;3.50;;;0.75;;
24233;SDS011;12365;43.554;1.388;2024-03-23T11:32:46;2.35;;;0.70;;
24233;SDS011;12365;43.554;1.388;2024-03-23T11:38:04;3.45;;;0.88;;
24233;SDS011;12365;43.554;1.388;2024-03-23T11:40:37;5.55;;;1.05;;
24233;SDS011;12365;43.554;1.388;2024-03-23T11:43:04;1.88;;;0.63;;
24233;SDS011;12365;43.554;1.388;2024-03-23T11:45:43;3.67;;;0.88;;
24233;SDS011;12365;43.554;1.388;2024-03-23T11:48:13;3.30;;;0.88;;
24233;SDS011;12365;43.554;1.388;2024-03-23T11:50:43;7.00;;;1.20;;
24233;SDS011;12365;43.554;1.388;2024-03-23T11:55:51;4.40;;;0.80;;
24233;SDS011;12365;43.554;1.388;2024-03-23T11:58:19;5.47;;;0.90;;
24233;SDS011;12365;43.554;1.388;2024-03-23T12:00:55;2.65;;;0.80;;
24233;SDS011;12365;43.554;1.388;2024-03-23T12:03:25;2.63;;;0.80;;
24233;SDS011;12365;43.554;1.388;2024-03-23T12:05:52;2.60;;;0.65;;
24233;SDS011;12365;43.554;1.388;2024-03-23T12:10:50;3.65;;;0.77;;
24233;SDS011;12365;43.554;1.388;2024-03-23T12:13:16;3.65;;;0.80;;
24233;SDS011;12365;43.554;1.388;2024-03-23T12:15:42;4.80;;;1.17;;
24233;SDS011;12365;43.554;1.388;2024-03-23T12:18:09;2.13;;;0.60;;
24233;SDS011;12365;43.554;1.388;2024-03-23T12:20:35;3.15;;;0.80;;
24233;SDS011;12365;43.554;1.388;2024-03-23T12:23:05;2.72;;;0.75;;
24233;SDS011;12365;43.554;1.388;2024-03-23T12:25:31;3.23;;;0.83;;
24233;SDS011;12365;43.554;1.388;2024-03-23T12:27:58;3.03;;;0.70;;
24233;SDS011;12365;43.554;1.388;2024-03-23T12:30:24;2.45;;;0.82;;
24233;SDS011;12365;43.554;1.388;2024-03-23T12:32:50;2.15;;;0.68;;
24233;SDS011;12365;43.554;1.388;2024-03-23T12:35:15;2.15;;;0.60;;
24233;SDS011;12365;43.554;1.388;2024-03-23T12:37:40;2.88;;;0.70;;
24233;SDS011;12365;43.554;1.388;2024-03-23T12:40:06;2.95;;;0.60;;
24233;SDS011;12365;43.554;1.388;2024-03-23T12:42:32;3.22;;;0.80;;
24233;SDS011;12365;43.554;1.388;2024-03-23T12:44:58;2.33;;;0.80;;
24233;SDS011;12365;43.554;1.388;2024-03-23T12:47:23;2.33;;;0.77;;
24233;SDS011;12365;43.554;1.388;2024-03-23T12:49:49;2.30;;;0.70;;
24233;SDS011;12365;43.554;1.388;2024-03-23T12:52:14;5.00;;;0.90;;
24233;SDS011;12365;43.554;1.388;2024-03-23T12:54:40;3.58;;;0.50;;
24233;SDS011;12365;43.554;1.388;2024-03-23T12:57:05;2.28;;;0.70;;
24233;SDS011;12365;43.554;1.388;2024-03-23T12:59:31;2.58;;;0.70;;
24233;SDS011;12365;43.554;1.388;2024-03-23T13:01:57;4.90;;;0.70;;
24233;SDS011;12365;43.554;1.388;2024-03-23T13:04:23;0.95;;;0.50;;
24233;SDS011;12365;43.554;1.388;2024-03-23T13:06:48;2.35;;;0.90;;
24233;SDS011;12365;43.554;1.388;2024-03-23T13:09:13;2.63;;;0.70;;
24233;SDS011;12365;43.554;1.388;2024-03-23T13:11:39;4.00;;;1.00;;
24233;SDS011;12365;43.554;1.388;2024-03-23T13:14:04;2.75;;;0.80;;
24233;SDS011;12365;43.554;1.388;2024-03-23T13:16:30;4.50;;;0.95;;
24233;SDS011;12365;43.554;1.388;2024-03-23T13:18:56;2.45;;;0.88;;
24233;SDS011;12365;43.554;1.388;2024-03-23T13:21:21;5.38;;;1.10;;
24233;SDS011;12365;43.554;1.388;2024-03-23T13:23:47;4.55;;;0.90;;
24233;SDS011;12365;43.554;1.388;2024-03-23T13:26:13;2.90;;;0.80;;
24233;SDS011;12365;43.554;1.388;2024-03-23T13:28:38;3.33;;;0.80;;
24233;SDS011;12365;43.554;1.388;2024-03-23T13:31:04;4.68;;;0.80;;
24233;SDS011;12365;43.554;1.388;2024-03-23T13:33:30;2.78;;;0.70;;
24233;SDS011;12365;43.554;1.388;2024-03-23T13:35:58;4.38;;;1.00;;
24233;SDS011;12365;43.554;1.388;2024-03-23T13:38:24;4.05;;;0.90;;
24233;SDS011;12365;43.554;1.388;2024-03-23T13:40:50;4.10;;;0.93;;
24233;SDS011;12365;43.554;1.388;2024-03-23T13:43:19;2.78;;;0.93;;
24233;SDS011;12365;43.554;1.388;2024-03-23T13:45:46;4.65;;;1.13;;
24233;SDS011;12365;43.554;1.388;2024-03-23T13:48:13;3.28;;;0.88;;
24233;SDS011;12365;43.554;1.388;2024-03-23T13:50:39;4.95;;;1.02;;
24233;SDS011;12365;43.554;1.388;2024-03-23T13:53:04;5.03;;;1.20;;
24233;SDS011;12365;43.554;1.388;2024-03-23T13:55:31;4.75;;;1.00;;
24233;SDS011;12365;43.554;1.388;2024-03-23T13:57:56;2.15;;;0.68;;
24233;SDS011;12365;43.554;1.388;2024-03-23T14:00:22;9.90;;;1.33;;
24233;SDS011;12365;43.554;1.388;2024-03-23T14:02:48;4.50;;;1.15;;
24233;SDS011;12365;43.554;1.388;2024-03-23T14:05:14;5.68;;;1.25;;
24233;SDS011;12365;43.554;1.388;2024-03-23T14:07:39;3.97;;;1.00;;
24233;SDS011;12365;43.554;1.388;2024-03-23T14:10:04;5.53;;;1.20;;
24233;SDS011;12365;43.554;1.388;2024-03-23T14:15:01;5.38;;;1.00;;
24233;SDS011;12365;43.554;1.388;2024-03-23T14:17:27;5.00;;;1.17;;
24233;SDS011;12365;43.554;1.388;2024-03-23T14:19:53;3.83;;;1.13;;
24233;SDS011;12365;43.554;1.388;2024-03-23T14:22:18;4.40;;;1.10;;
24233;SDS011;12365;43.554;1.388;2024-03-23T14:24:46;5.20;;;1.00;;
24233;SDS011;12365;43.554;1.388;2024-03-23T14:27:12;5.40;;;1.20;;
24233;SDS011;12365;43.554;1.388;2024-03-23T14:29:37;6.05;;;1.10;;
24233;SDS011;12365;43.554;1.388;2024-03-23T14:32:02;3.47;;;1.10;;
24233;SDS011;12365;43.554;1.388;2024-03-23T14:34:28;4.28;;;1.08;;
24233;SDS011;12365;43.554;1.388;2024-03-23T14:36:54;3.60;;;0.90;;
24233;SDS011;12365;43.554;1.388;2024-03-23T14:39:23;5.80;;;1.10;;
24233;SDS011;12365;43.554;1.388;2024-03-23T14:41:50;5.85;;;1.00;;
24233;SDS011;12365;43.554;1.388;2024-03-23T14:44:15;4.25;;;0.82;;
24233;SDS011;12365;43.554;1.388;2024-03-23T14:46:41;4.72;;;1.10;;
24233;SDS011;12365;43.554;1.388;2024-03-23T14:49:06;5.82;;;1.00;;
24233;SDS011;12365;43.554;1.388;2024-03-23T14:51:32;5.15;;;1.10;;
24233;SDS011;12365;43.554;1.388;2024-03-23T14:53:58;3.95;;;1.10;;
24233;SDS011;12365;43.554;1.388;2024-03-23T14:56:24;5.75;;;0.90;;
24233;SDS011;12365;43.554;1.388;2024-03-23T14:58:52;3.85;;;1.02;;
24233;SDS011;12365;43.554;1.388;2024-03-23T15:01:17;4.30;;;0.90;;
24233;SDS011;12365;43.554;1.388;2024-03-23T15:03:43;2.42;;;0.90;;
24233;SDS011;12365;43.554;1.388;2024-03-23T15:06:09;4.03;;;0.90;;
24233;SDS011;12365;43.554;1.388;2024-03-23T15:08:35;3.45;;;1.10;;
24233;SDS011;12365;43.554;1.388;2024-03-23T15:11:02;4.75;;;1.27;;
24233;SDS011;12365;43.554;1.388;2024-03-23T15:13:31;4.63;;;1.35;;
24233;SDS011;12365;43.554;1.388;2024-03-23T15:16:00;5.90;;;1.20;;
24233;SDS011;12365;43.554;1.388;2024-03-23T15:18:25;7.55;;;1.10;;
24233;SDS011;12365;43.554;1.388;2024-03-23T15:20:52;4.60;;;1.23;;
24233;SDS011;12365;43.554;1.388;2024-03-23T15:23:21;4.22;;;0.90;;
24233;SDS011;12365;43.554;1.388;2024-03-23T15:25:54;4.30;;;0.93;;
24233;SDS011;12365;43.554;1.388;2024-03-23T15:28:23;7.47;;;1.35;;
24233;SDS011;12365;43.554;1.388;2024-03-23T15:30:49;5.78;;;1.30;;
24233;SDS011;12365;43.554;1.388;2024-03-23T15:33:15;5.75;;;1.05;;
24233;SDS011;12365;43.554;1.388;2024-03-23T15:35:40;7.07;;;0.90;;
24233;SDS011;12365;43.554;1.388;2024-03-23T15:38:06;2.53;;;0.85;;
24233;SDS011;12365;43.554;1.388;2024-03-23T15:40:31;2.63;;;1.00;;
24233;SDS011;12365;43.554;1.388;2024-03-23T15:42:57;4.43;;;1.02;;
24233;SDS011;12365;43.554;1.388;2024-03-23T15:45:22;5.80;;;1.25;;
24233;SDS011;12365;43.554;1.388;2024-03-23T15:47:47;5.32;;;1.08;;
24233;SDS011;12365;43.554;1.388;2024-03-23T15:50:13;5.95;;;0.88;;
24233;SDS011;12365;43.554;1.388;2024-03-23T15:52:38;3.78;;;1.20;;
24233;SDS011;12365;43.554;1.388;2024-03-23T15:55:04;3.33;;;1.10;;
24233;SDS011;12365;43.554;1.388;2024-03-23T15:57:33;3.13;;;0.88;;
24233;SDS011;12365;43.554;1.388;2024-03-23T15:59:59;2.85;;;0.80;;